Time;durP1;ratioP1;P1;durP2;ratioP2;P2;SDS_P1;SDS_P2;PMS_P1;PMS_P2;Temp;Humidity;BMP_temperature;BMP_pressure;BME280_temperature;BME280_humidity;BME280_pressure;Samples;Min_cycle;Max_cycle;Signal;HPM_P1;HPM_P2
2021/03/26 00:00:17;;;;;;;41.33;36.13;;;;;;;;;;5071829;28;20454;-67
2021/03/26 00:02:43;;;;;;;41.40;36.00;;;;;;;;;;5071230;28;20802;-67
2021/03/26 00:05:15;;;;;;;41.00;36.53;;;;;;;;;;5071237;28;20906;-66
2021/03/26 00:07:42;;;;;;;40.47;36.27;;;;;;;;;;5070299;28;20848;-64
2021/03/26 00:10:09;;;;;;;42.93;37.30;;;;;;;;;;5071133;28;20457;-64
2021/03/26 00:12:36;;;;;;;42.30;36.63;;;;;;;;;;5071752;28;20532;-66
2021/03/26 00:15:03;;;;;;;40.23;35.93;;;;;;;;;;5063478;28;20865;-65
2021/03/26 00:17:30;;;;;;;42.20;36.17;;;;;;;;;;5070874;28;20949;-66
2021/03/26 00:19:57;;;;;;;41.13;36.37;;;;;;;;;;5071372;28;21049;-65
2021/03/26 00:22:25;;;;;;;42.23;37.17;;;;;;;;;;5062065;28;20455;-64
2021/03/26 00:24:51;;;;;;;43.17;37.23;;;;;;;;;;5058005;28;20555;-66
2021/03/26 00:27:18;;;;;;;41.27;35.70;;;;;;;;;;5051430;28;20597;-63
2021/03/26 00:29:44;;;;;;;41.77;37.27;;;;;;;;;;5059496;28;20534;-65
2021/03/26 00:32:11;;;;;;;42.97;35.73;;;;;;;;;;5057904;28;20476;-66
2021/03/26 00:34:38;;;;;;;42.33;36.03;;;;;;;;;;5058469;28;21014;-65
2021/03/26 00:37:05;;;;;;;43.27;36.70;;;;;;;;;;5051430;28;20447;-64
2021/03/26 00:39:32;;;;;;;40.57;36.20;;;;;;;;;;5065222;28;20814;-66
2021/03/26 00:41:59;;;;;;;42.90;38.23;;;;;;;;;;5071017;28;20930;-67
2021/03/26 00:44:26;;;;;;;43.67;37.40;;;;;;;;;;5078225;28;20561;-67
2021/03/26 00:46:52;;;;;;;41.77;36.43;;;;;;;;;;5074743;28;20451;-66
2021/03/26 00:49:19;;;;;;;42.80;37.53;;;;;;;;;;5077069;28;20446;-67
2021/03/26 00:51:45;;;;;;;40.53;36.17;;;;;;;;;;5065971;28;20478;-67
2021/03/26 00:54:15;;;;;;;43.23;36.10;;;;;;;;;;5080213;28;20571;-66
2021/03/26 00:56:43;;;;;;;40.70;36.40;;;;;;;;;;5059572;28;20491;-66
2021/03/26 00:59:09;;;;;;;41.13;36.00;;;;;;;;;;5065784;28;20908;-68
2021/03/26 01:01:36;;;;;;;42.00;37.03;;;;;;;;;;5062850;28;20455;-66
2021/03/26 01:04:03;;;;;;;42.80;37.10;;;;;;;;;;5063285;28;20473;-67
2021/03/26 01:06:30;;;;;;;45.27;37.30;;;;;;;;;;5079469;28;20455;-67
2021/03/26 01:08:56;;;;;;;40.77;35.53;;;;;;;;;;5076156;28;20443;-65
2021/03/26 01:11:26;;;;;;;40.60;36.33;;;;;;;;;;5074389;28;20811;-65
2021/03/26 01:13:55;;;;;;;44.40;37.10;;;;;;;;;;5085049;28;20470;-65
2021/03/26 01:16:22;;;;;;;39.37;34.20;;;;;;;;;;5075265;28;20454;-65
2021/03/26 01:18:49;;;;;;;41.63;35.37;;;;;;;;;;5072932;28;20450;-65
2021/03/26 01:21:19;;;;;;;40.07;35.50;;;;;;;;;;5054960;28;20540;-65
2021/03/26 01:23:46;;;;;;;41.13;34.10;;;;;;;;;;5071496;28;20470;-64
2021/03/26 01:26:12;;;;;;;42.30;35.63;;;;;;;;;;5077181;28;20941;-65
2021/03/26 01:28:39;;;;;;;36.53;32.60;;;;;;;;;;5070434;28;20537;-64
2021/03/26 01:31:07;;;;;;;37.00;33.00;;;;;;;;;;5064413;28;20452;-64
2021/03/26 01:33:33;;;;;;;38.50;34.40;;;;;;;;;;5059809;28;20584;-64
2021/03/26 01:36:00;;;;;;;38.33;32.47;;;;;;;;;;5054229;28;20447;-64
2021/03/26 01:38:27;;;;;;;40.20;34.37;;;;;;;;;;5060024;28;20446;-64
2021/03/26 01:40:55;;;;;;;37.27;33.30;;;;;;;;;;5057014;28;20541;-64
2021/03/26 01:43:23;;;;;;;37.20;33.20;;;;;;;;;;5055979;28;20522;-65
2021/03/26 01:45:51;;;;;;;35.43;31.57;;;;;;;;;;5054330;28;20538;-64
2021/03/26 01:48:23;;;;;;;38.30;32.60;;;;;;;;;;5059444;28;20876;-64
2021/03/26 01:50:49;;;;;;;39.47;33.30;;;;;;;;;;5054925;28;20424;-64
2021/03/26 01:53:16;;;;;;;38.53;32.90;;;;;;;;;;5058470;28;20992;-64
2021/03/26 01:55:44;;;;;;;36.07;32.23;;;;;;;;;;5073969;28;20450;-64
2021/03/26 01:58:12;;;;;;;38.17;32.13;;;;;;;;;;5075280;28;20459;-64
2021/03/26 02:00:40;;;;;;;39.50;34.57;;;;;;;;;;5094113;28;20937;-64
2021/03/26 02:03:08;;;;;;;40.30;34.07;;;;;;;;;;5067390;28;20467;-64
2021/03/26 02:05:36;;;;;;;39.10;32.90;;;;;;;;;;5053806;28;20444;-64
2021/03/26 02:08:02;;;;;;;38.17;31.53;;;;;;;;;;5066672;28;20455;-64
2021/03/26 02:10:30;;;;;;;37.40;32.10;;;;;;;;;;5073687;28;20447;-64
2021/03/26 02:12:59;;;;;;;40.07;34.63;;;;;;;;;;5062658;28;20493;-64
2021/03/26 02:15:28;;;;;;;41.87;33.23;;;;;;;;;;5092866;28;20457;-64
2021/03/26 02:17:54;;;;;;;38.87;33.83;;;;;;;;;;5082702;28;20448;-64
2021/03/26 02:20:28;;;;;;;38.93;33.27;;;;;;;;;;5053854;28;20456;-63
2021/03/26 02:22:57;;;;;;;37.23;33.10;;;;;;;;;;5072447;28;20466;-64
2021/03/26 02:25:25;;;;;;;36.67;32.10;;;;;;;;;;5083509;28;20455;-64
2021/03/26 02:27:52;;;;;;;42.33;35.00;;;;;;;;;;5082071;28;20694;-65
2021/03/26 02:30:20;;;;;;;41.23;33.80;;;;;;;;;;5077579;28;20950;-65
2021/03/26 02:32:47;;;;;;;41.03;33.30;;;;;;;;;;5062493;28;20532;-65
2021/03/26 02:35:16;;;;;;;48.40;37.13;;;;;;;;;;5066126;28;20523;-64
2021/03/26 02:37:44;;;;;;;43.43;36.50;;;;;;;;;;5071292;28;20456;-64
2021/03/26 02:40:14;;;;;;;43.00;38.20;;;;;;;;;;5081539;28;20950;-64
2021/03/26 02:42:42;;;;;;;41.40;36.93;;;;;;;;;;5059595;28;20443;-64
2021/03/26 02:45:11;;;;;;;41.60;37.17;;;;;;;;;;5068168;28;20589;-65
2021/03/26 02:47:39;;;;;;;43.83;37.00;;;;;;;;;;5064741;28;20517;-65
2021/03/26 02:50:10;;;;;;;44.90;37.23;;;;;;;;;;5052973;28;20958;-64
2021/03/26 02:52:43;;;;;;;43.70;37.73;;;;;;;;;;5064789;28;20483;-65
2021/03/26 02:55:13;;;;;;;46.80;39.10;;;;;;;;;;5059384;28;20451;-67
2021/03/26 02:57:43;;;;;;;40.97;36.47;;;;;;;;;;5073109;28;20435;-64
2021/03/26 03:00:14;;;;;;;43.40;36.80;;;;;;;;;;5067435;28;20450;-64
2021/03/26 03:02:42;;;;;;;41.73;37.27;;;;;;;;;;5083652;28;20521;-67
2021/03/26 03:05:10;;;;;;;46.97;38.70;;;;;;;;;;5060801;28;20538;-64
2021/03/26 03:07:38;;;;;;;46.97;38.93;;;;;;;;;;5072590;28;20521;-65
2021/03/26 03:10:10;;;;;;;50.93;39.93;;;;;;;;;;5060301;28;20561;-65
2021/03/26 03:12:39;;;;;;;45.70;37.40;;;;;;;;;;5073360;28;20954;-64
2021/03/26 03:15:08;;;;;;;47.67;39.33;;;;;;;;;;5074791;28;20485;-64
2021/03/26 03:17:40;;;;;;;53.17;43.87;;;;;;;;;;5066433;28;20457;-65
2021/03/26 03:20:08;;;;;;;56.90;42.60;;;;;;;;;;5072631;28;20508;-64
2021/03/26 03:22:39;;;;;;;52.67;42.30;;;;;;;;;;5078847;28;20525;-66
2021/03/26 03:25:08;;;;;;;55.00;42.90;;;;;;;;;;5084861;28;20963;-64
2021/03/26 03:27:39;;;;;;;50.10;41.90;;;;;;;;;;5078197;28;20454;-66
2021/03/26 03:30:26;;;;;;;56.90;45.47;;;;;;;;;;5080146;28;20838;-66
2021/03/26 03:33:02;;;;;;;56.30;43.40;;;;;;;;;;5054573;28;20478;-64
2021/03/26 03:35:33;;;;;;;56.37;45.60;;;;;;;;;;5062775;28;20446;-64
2021/03/26 03:38:05;;;;;;;60.83;47.33;;;;;;;;;;5074151;28;20442;-64
2021/03/26 03:40:33;;;;;;;59.27;46.70;;;;;;;;;;5074755;28;20452;-65
2021/03/26 03:43:04;;;;;;;57.63;45.70;;;;;;;;;;5073191;28;20553;-67
2021/03/26 03:45:33;;;;;;;58.83;46.00;;;;;;;;;;5083498;28;20522;-64
2021/03/26 03:48:04;;;;;;;61.53;47.67;;;;;;;;;;5071754;28;20965;-67
2021/03/26 03:50:32;;;;;;;57.70;46.93;;;;;;;;;;5071978;28;20435;-64
2021/03/26 03:53:00;;;;;;;64.87;49.20;;;;;;;;;;5083840;28;20496;-63
2021/03/26 03:55:30;;;;;;;64.93;48.27;;;;;;;;;;5083091;28;20442;-64
2021/03/26 03:58:01;;;;;;;67.03;51.00;;;;;;;;;;5063018;28;20458;-64
2021/03/26 04:00:29;;;;;;;63.97;45.37;;;;;;;;;;5069970;28;20460;-63
2021/03/26 04:02:59;;;;;;;68.87;50.30;;;;;;;;;;5070160;28;20491;-63
2021/03/26 04:05:28;;;;;;;64.63;48.57;;;;;;;;;;5052551;28;20459;-64
2021/03/26 04:07:58;;;;;;;64.67;49.10;;;;;;;;;;5062409;28;20938;-64
2021/03/26 04:10:26;;;;;;;70.30;51.53;;;;;;;;;;5053103;28;20432;-64
2021/03/26 04:12:55;;;;;;;67.00;51.23;;;;;;;;;;5065100;28;21151;-66
2021/03/26 04:15:23;;;;;;;66.17;52.23;;;;;;;;;;5073181;28;20866;-64
2021/03/26 04:17:53;;;;;;;68.67;51.60;;;;;;;;;;5073901;28;20451;-64
2021/03/26 04:20:21;;;;;;;65.73;50.30;;;;;;;;;;5074785;28;20483;-66
2021/03/26 04:22:51;;;;;;;64.37;50.07;;;;;;;;;;5076025;28;20476;-64
2021/03/26 04:25:21;;;;;;;59.10;47.77;;;;;;;;;;5058720;28;20458;-64
2021/03/26 04:27:50;;;;;;;66.40;48.03;;;;;;;;;;5077560;28;20502;-64
2021/03/26 04:30:24;;;;;;;68.93;53.40;;;;;;;;;;5079876;28;20457;-66
2021/03/26 04:32:51;;;;;;;68.17;51.77;;;;;;;;;;5079853;28;20466;-64
2021/03/26 04:35:18;;;;;;;68.70;50.23;;;;;;;;;;5076882;28;20518;-65
2021/03/26 04:37:49;;;;;;;66.80;51.40;;;;;;;;;;5083902;22;20495;-64
2021/03/26 04:40:19;;;;;;;69.87;51.30;;;;;;;;;;5051163;28;20547;-65
2021/03/26 04:42:48;;;;;;;71.00;51.50;;;;;;;;;;5051626;28;20500;-65
2021/03/26 04:45:18;;;;;;;75.27;52.33;;;;;;;;;;5038656;28;20531;-65
2021/03/26 04:47:47;;;;;;;71.73;52.07;;;;;;;;;;5031245;28;20552;-64
2021/03/26 04:50:17;;;;;;;70.70;53.03;;;;;;;;;;5031579;28;20503;-64
2021/03/26 04:52:45;;;;;;;76.10;52.07;;;;;;;;;;5041554;28;20571;-64
2021/03/26 04:55:15;;;;;;;68.47;52.10;;;;;;;;;;5031164;28;21009;-64
2021/03/26 04:57:45;;;;;;;67.10;51.93;;;;;;;;;;5031505;28;20603;-64
2021/03/26 05:00:14;;;;;;;76.83;53.40;;;;;;;;;;5031680;28;20821;-65
2021/03/26 05:02:43;;;;;;;73.57;52.80;;;;;;;;;;5049144;28;20586;-64
2021/03/26 05:05:11;;;;;;;60.47;48.27;;;;;;;;;;5035316;28;20492;-64
2021/03/26 05:07:41;;;;;;;78.50;63.00;;;;;;;;;;5042771;28;20604;-64
2021/03/26 05:10:10;;;;;;;80.50;63.40;;;;;;;;;;5050525;28;21025;-64
2021/03/26 05:12:41;;;;;;;79.43;61.27;;;;;;;;;;5049515;28;20558;-64
2021/03/26 05:15:11;;;;;;;76.33;61.13;;;;;;;;;;5051343;28;20788;-64
2021/03/26 05:17:42;;;;;;;77.40;61.50;;;;;;;;;;5035998;28;21007;-64
2021/03/26 05:20:16;;;;;;;77.30;61.73;;;;;;;;;;5038345;28;20530;-64
2021/03/26 05:22:45;;;;;;;70.87;59.30;;;;;;;;;;5051116;28;20442;-65
2021/03/26 05:25:13;;;;;;;71.83;58.10;;;;;;;;;;5050732;28;20539;-65
2021/03/26 05:27:40;;;;;;;71.70;58.57;;;;;;;;;;5050254;28;20494;-64
2021/03/26 05:30:09;;;;;;;69.50;56.47;;;;;;;;;;5050678;28;20458;-64
2021/03/26 05:32:40;;;;;;;67.67;56.33;;;;;;;;;;5039428;28;21002;-64
2021/03/26 05:35:09;;;;;;;63.43;53.57;;;;;;;;;;5039904;28;20448;-64
2021/03/26 05:37:38;;;;;;;70.37;57.63;;;;;;;;;;5040835;28;20484;-63
2021/03/26 05:40:11;;;;;;;65.43;54.27;;;;;;;;;;5039010;28;20455;-65
2021/03/26 05:42:45;;;;;;;60.90;54.20;;;;;;;;;;5052873;28;20778;-66
2021/03/26 05:45:30;;;;;;;68.77;57.07;;;;;;;;;;5053468;28;20447;-65
2021/03/26 05:48:04;;;;;;;68.10;55.30;;;;;;;;;;5036891;28;20472;-65
2021/03/26 05:50:39;;;;;;;65.73;52.50;;;;;;;;;;5040691;28;20439;-65
2021/03/26 05:53:15;;;;;;;63.43;54.93;;;;;;;;;;5051693;28;20481;-64
2021/03/26 05:55:49;;;;;;;62.67;54.03;;;;;;;;;;5053628;28;20833;-65
2021/03/26 05:58:22;;;;;;;60.13;53.20;;;;;;;;;;5035173;28;20472;-66
2021/03/26 06:00:55;;;;;;;61.63;53.40;;;;;;;;;;5041929;28;20830;-67
2021/03/26 06:03:37;;;;;;;58.60;51.03;;;;;;;;;;5052327;28;20444;-65
2021/03/26 06:06:21;;;;;;;58.93;52.63;;;;;;;;;;5050946;28;20462;-66
2021/03/26 06:09:03;;;;;;;58.90;51.17;;;;;;;;;;5041413;28;20522;-65
2021/03/26 06:11:46;;;;;;;53.83;47.50;;;;;;;;;;5047235;28;20449;-66
2021/03/26 06:14:31;;;;;;;55.77;49.80;;;;;;;;;;5043525;28;20451;-64
2021/03/26 06:17:13;;;;;;;53.33;47.67;;;;;;;;;;5044068;28;20469;-65
2021/03/26 06:19:55;;;;;;;52.63;46.87;;;;;;;;;;5046306;28;20562;-65
2021/03/26 06:22:35;;;;;;;49.77;44.40;;;;;;;;;;5052723;28;20436;-64
2021/03/26 06:25:24;;;;;;;48.57;43.30;;;;;;;;;;5054128;28;20455;-65
2021/03/26 06:27:55;;;;;;;14.33;9.40;;;;;;;;;;5048486;28;20476;-65
2021/03/26 06:30:27;;;;;;;18.07;11.60;;;;;;;;;;5053894;28;20444;-70
2021/03/26 06:33:23;;;;;;;10.80;9.67;;;;;;;;;;5048875;28;21173;-61
2021/03/26 06:36:03;;;;;;;15.17;11.50;;;;;;;;;;5053745;28;20440;-62
2021/03/26 06:38:57;;;;;;;14.00;12.30;;;;;;;;;;5052592;28;20482;-61
2021/03/26 06:41:32;;;;;;;15.60;13.97;;;;;;;;;;5052325;28;20444;-61
2021/03/26 06:44:17;;;;;;;17.13;13.40;;;;;;;;;;5052886;28;20535;-62
2021/03/26 06:46:48;;;;;;;14.20;12.80;;;;;;;;;;5047429;28;20482;-62
2021/03/26 06:49:18;;;;;;;15.40;13.90;;;;;;;;;;5053657;28;20444;-62
2021/03/26 06:52:00;;;;;;;18.03;16.33;;;;;;;;;;5052215;28;20479;-62
2021/03/26 06:54:41;;;;;;;18.07;14.23;;;;;;;;;;5039459;28;20454;-62
2021/03/26 06:57:29;;;;;;;20.40;18.40;;;;;;;;;;5039995;28;21009;-62
2021/03/26 07:00:13;;;;;;;18.07;15.47;;;;;;;;;;5019609;28;20456;-62
2021/03/26 07:02:58;;;;;;;16.67;15.00;;;;;;;;;;5042429;28;20439;-62
2021/03/26 07:05:49;;;;;;;14.77;13.37;;;;;;;;;;5044463;28;20445;-62
2021/03/26 07:08:23;;;;;;;17.13;15.40;;;;;;;;;;5033419;28;20487;-62
2021/03/26 07:10:58;;;;;;;15.60;14.00;;;;;;;;;;5040625;28;20469;-62
2021/03/26 07:13:39;;;;;;;14.93;13.53;;;;;;;;;;5038244;28;20529;-61
2021/03/26 07:16:22;;;;;;;15.13;13.63;;;;;;;;;;5038563;28;20479;-62
2021/03/26 07:18:57;;;;;;;16.73;15.17;;;;;;;;;;5053213;28;20526;-62
2021/03/26 07:21:36;;;;;;;24.57;22.33;;;;;;;;;;5052478;28;20509;-62
2021/03/26 07:24:26;;;;;;;17.20;15.50;;;;;;;;;;5053811;28;20438;-62
2021/03/26 07:26:57;;;;;;;16.47;14.87;;;;;;;;;;5036309;28;20475;-65
2021/03/26 07:29:31;;;;;;;16.27;14.47;;;;;;;;;;5053916;28;20483;-61
2021/03/26 07:32:15;;;;;;;20.40;18.20;;;;;;;;;;5049865;28;20538;-64
2021/03/26 07:34:46;;;;;;;19.00;17.10;;;;;;;;;;5053772;28;20438;-62
2021/03/26 07:37:18;;;;;;;17.87;16.00;;;;;;;;;;5036238;28;20489;-62
2021/03/26 07:39:51;;;;;;;15.40;13.80;;;;;;;;;;5036122;28;20520;-62
2021/03/26 07:42:28;;;;;;;18.00;16.20;;;;;;;;;;5054486;28;20581;-62
2021/03/26 07:45:20;;;;;;;17.43;15.83;;;;;;;;;;5043754;28;20449;-60
2021/03/26 07:47:56;;;;;;;17.90;16.20;;;;;;;;;;5052399;28;20472;-61
2021/03/26 07:50:40;;;;;;;17.20;15.40;;;;;;;;;;5047949;28;20938;-62
2021/03/26 07:53:18;;;;;;;16.20;14.27;;;;;;;;;;5041927;28;20484;-62
2021/03/26 07:55:48;;;;;;;17.17;15.40;;;;;;;;;;5047049;28;20515;-62
2021/03/26 07:58:36;;;;;;;19.00;17.20;;;;;;;;;;5054080;28;20559;-62
2021/03/26 08:01:23;;;;;;;19.43;17.53;;;;;;;;;;5053160;28;20978;-62
2021/03/26 08:03:54;;;;;;;19.27;17.40;;;;;;;;;;5054942;28;20444;-62
2021/03/26 08:06:33;;;;;;;16.00;14.40;;;;;;;;;;5062623;28;20444;-62
2021/03/26 08:09:09;;;;;;;17.87;16.10;;;;;;;;;;5057370;28;20475;-62
2021/03/26 08:11:44;;;;;;;16.20;14.70;;;;;;;;;;5074322;28;20523;-63
2021/03/26 08:14:31;;;;;;;15.77;12.33;;;;;;;;;;5074790;28;20482;-63
2021/03/26 08:17:11;;;;;;;35.40;32.10;;;;;;;;;;5072186;28;20475;-63
2021/03/26 08:19:40;;;;;;;28.40;25.60;;;;;;;;;;5071966;28;20440;-63
2021/03/26 08:22:15;;;;;;;21.53;18.80;;;;;;;;;;5054153;28;20504;-62
2021/03/26 08:24:51;;;;;;;26.80;24.30;;;;;;;;;;5057092;28;20524;-63
2021/03/26 08:27:33;;;;;;;33.67;30.57;;;;;;;;;;5074320;28;20463;-65
2021/03/26 08:30:12;;;;;;;33.10;30.00;;;;;;;;;;5072622;28;20454;-63
2021/03/26 08:32:55;;;;;;;23.30;19.30;;;;;;;;;;5067071;28;20498;-61
2021/03/26 08:35:27;;;;;;;20.20;17.60;;;;;;;;;;5070537;28;20444;-61
2021/03/26 08:38:02;;;;;;;26.23;22.77;;;;;;;;;;5064081;28;20906;-61
2021/03/26 08:40:40;;;;;;;31.70;28.67;;;;;;;;;;5045031;28;20435;-61
2021/03/26 08:43:08;;;;;;;30.63;27.50;;;;;;;;;;5042080;28;20524;-61
2021/03/26 08:45:37;;;;;;;29.97;27.13;;;;;;;;;;5050875;28;20833;-61
2021/03/26 08:48:14;;;;;;;33.17;30.20;;;;;;;;;;5052222;28;20471;-61
2021/03/26 08:50:46;;;;;;;32.80;29.50;;;;;;;;;;5052094;28;20545;-63
2021/03/26 08:53:22;;;;;;;30.77;27.90;;;;;;;;;;5037355;28;21178;-62
2021/03/26 08:55:57;;;;;;;29.97;27.27;;;;;;;;;;5044015;28;20444;-62
2021/03/26 08:58:36;;;;;;;31.80;29.00;;;;;;;;;;5052337;28;20482;-61
2021/03/26 09:01:17;;;;;;;29.33;26.50;;;;;;;;;;5051446;28;20454;-61
2021/03/26 09:03:52;;;;;;;31.13;28.43;;;;;;;;;;5051647;28;20526;-61
2021/03/26 09:06:31;;;;;;;28.37;25.97;;;;;;;;;;5045541;28;20548;-61
2021/03/26 09:09:15;;;;;;;29.97;27.47;;;;;;;;;;5036110;28;20448;-61
2021/03/26 09:12:06;;;;;;;28.40;25.90;;;;;;;;;;5035571;28;20539;-61
2021/03/26 09:14:56;;;;;;;27.03;24.67;;;;;;;;;;5034967;28;20440;-61
2021/03/26 09:17:27;;;;;;;26.57;24.17;;;;;;;;;;5035034;28;20456;-61
2021/03/26 09:19:55;;;;;;;24.83;22.60;;;;;;;;;;5041316;28;21305;-61
2021/03/26 09:22:35;;;;;;;23.80;21.77;;;;;;;;;;5055573;28;20448;-61
2021/03/26 09:25:09;;;;;;;24.40;21.93;;;;;;;;;;5055335;28;20953;-61
2021/03/26 09:27:38;;;;;;;22.60;20.30;;;;;;;;;;5054848;28;20869;-61
2021/03/26 09:30:15;;;;;;;22.20;20.30;;;;;;;;;;5054912;28;20534;-61
2021/03/26 09:32:47;;;;;;;22.63;20.73;;;;;;;;;;5054862;28;20582;-61
2021/03/26 09:35:16;;;;;;;22.50;20.70;;;;;;;;;;5054203;28;20541;-61
2021/03/26 09:37:45;;;;;;;22.70;20.80;;;;;;;;;;5054445;28;20562;-61
2021/03/26 09:40:14;;;;;;;21.50;19.70;;;;;;;;;;5054750;28;20487;-61
2021/03/26 09:42:43;;;;;;;19.83;18.10;;;;;;;;;;5054782;28;20447;-61
2021/03/26 09:45:12;;;;;;;19.80;18.20;;;;;;;;;;5054736;28;20497;-61
2021/03/26 09:47:41;;;;;;;20.00;18.40;;;;;;;;;;5053528;28;20550;-61
2021/03/26 09:50:22;;;;;;;17.43;15.77;;;;;;;;;;5049612;28;20959;-61
2021/03/26 09:52:49;;;;;;;19.63;17.90;;;;;;;;;;5034355;28;20922;-61
2021/03/26 09:55:20;;;;;;;18.90;17.40;;;;;;;;;;5033900;28;20544;-61
2021/03/26 09:57:48;;;;;;;19.53;17.60;;;;;;;;;;5033900;28;20473;-61
2021/03/26 10:00:41;;;;;;;18.77;16.87;;;;;;;;;;5035532;28;20866;-61
2021/03/26 10:03:13;;;;;;;17.03;15.63;;;;;;;;;;4998605;28;20544;-61
2021/03/26 10:05:44;;;;;;;16.70;15.13;;;;;;;;;;5033923;28;20598;-62
2021/03/26 10:08:35;;;;;;;16.47;14.87;;;;;;;;;;5042120;28;20460;-62
2021/03/26 10:11:04;;;;;;;28.63;21.90;;;;;;;;;;5045387;28;20480;-62
2021/03/26 10:13:31;;;;;;;17.63;15.83;;;;;;;;;;5040490;28;21068;-62
2021/03/26 10:16:01;;;;;;;15.60;14.10;;;;;;;;;;5033622;28;20470;-62
2021/03/26 10:18:32;;;;;;;13.33;12.07;;;;;;;;;;5048985;28;20478;-62
2021/03/26 10:21:09;;;;;;;14.13;12.93;;;;;;;;;;5053919;28;20911;-62
2021/03/26 10:23:38;;;;;;;12.97;11.77;;;;;;;;;;5052421;28;20523;-62
2021/03/26 10:26:07;;;;;;;13.00;11.90;;;;;;;;;;5053391;28;20946;-62
2021/03/26 10:28:50;;;;;;;13.43;12.33;;;;;;;;;;5051784;28;20562;-62
2021/03/26 10:31:18;;;;;;;13.63;12.43;;;;;;;;;;5051850;28;20513;-62
2021/03/26 10:33:46;;;;;;;15.07;13.87;;;;;;;;;;5033965;28;20847;-62
2021/03/26 10:36:19;;;;;;;14.60;13.40;;;;;;;;;;5033452;28;20448;-62
2021/03/26 10:38:48;;;;;;;15.73;14.03;;;;;;;;;;5070591;22;21068;-68
2021/03/26 10:41:21;;;;;;;14.70;13.20;;;;;;;;;;5052106;28;21191;-67
2021/03/26 10:43:50;;;;;;;14.43;13.13;;;;;;;;;;5063996;28;20560;-67
2021/03/26 10:46:19;;;;;;;13.27;12.13;;;;;;;;;;5043368;28;20506;-67
2021/03/26 10:48:48;;;;;;;15.73;14.07;;;;;;;;;;5041667;28;20547;-68
2021/03/26 10:51:27;;;;;;;15.60;14.00;;;;;;;;;;5033319;28;20433;-67
2021/03/26 10:53:57;;;;;;;14.17;12.87;;;;;;;;;;5033292;28;20476;-66
2021/03/26 10:56:29;;;;;;;13.83;12.63;;;;;;;;;;5057694;28;20432;-68
2021/03/26 10:58:57;;;;;;;14.27;12.97;;;;;;;;;;5052900;28;20475;-66
2021/03/26 11:01:25;;;;;;;15.20;13.77;;;;;;;;;;5051594;28;20548;-67
2021/03/26 11:03:54;;;;;;;15.40;14.10;;;;;;;;;;5041011;28;20458;-66
2021/03/26 11:06:26;;;;;;;15.30;13.90;;;;;;;;;;5052725;28;20539;-67
2021/03/26 11:08:58;;;;;;;15.40;13.93;;;;;;;;;;5053069;28;20470;-66
2021/03/26 11:11:29;;;;;;;13.90;12.70;;;;;;;;;;5052645;28;20428;-67
2021/03/26 11:14:26;;;;;;;14.30;13.10;;;;;;;;;;5052719;28;20573;-66
2021/03/26 11:17:03;;;;;;;15.00;13.50;;;;;;;;;;5034017;28;20540;-66
2021/03/26 11:19:33;;;;;;;14.07;12.80;;;;;;;;;;5032292;28;20979;-66
2021/03/26 11:22:04;;;;;;;14.23;12.90;;;;;;;;;;5032061;28;20951;-66
2021/03/26 11:24:38;;;;;;;13.03;11.73;;;;;;;;;;5048857;28;21073;-66
2021/03/26 11:27:08;;;;;;;13.63;12.27;;;;;;;;;;5036088;28;20535;-67
2021/03/26 11:29:36;;;;;;;12.37;11.27;;;;;;;;;;5035757;28;20821;-66
2021/03/26 11:32:07;;;;;;;12.07;11.00;;;;;;;;;;5033550;28;20452;-68
2021/03/26 11:34:41;;;;;;;11.93;10.73;;;;;;;;;;5049314;28;20483;-68
2021/03/26 11:37:13;;;;;;;12.47;11.37;;;;;;;;;;5051919;28;20552;-66
2021/03/26 11:39:41;;;;;;;12.80;11.50;;;;;;;;;;5051914;28;20562;-66
2021/03/26 11:42:26;;;;;;;11.97;10.87;;;;;;;;;;5051929;28;20535;-66
2021/03/26 11:44:55;;;;;;;12.27;11.17;;;;;;;;;;5051238;28;20539;-66
2021/03/26 11:47:32;;;;;;;18.37;15.00;;;;;;;;;;5051777;28;20474;-67
2021/03/26 11:50:04;;;;;;;11.13;10.10;;;;;;;;;;5033326;28;21042;-68
2021/03/26 11:52:39;;;;;;;11.77;10.67;;;;;;;;;;5033979;28;20448;-66
2021/03/26 11:55:08;;;;;;;11.40;10.40;;;;;;;;;;5052948;28;20538;-67
2021/03/26 11:57:37;;;;;;;11.80;10.80;;;;;;;;;;5051453;28;20849;-66
2021/03/26 12:00:11;;;;;;;11.70;10.70;;;;;;;;;;5048747;28;20466;-66
2021/03/26 12:02:56;;;;;;;11.07;9.97;;;;;;;;;;5043833;28;20468;-67
2021/03/26 12:05:28;;;;;;;17.13;11.53;;;;;;;;;;5035730;28;20959;-67
2021/03/26 12:08:00;;;;;;;13.37;11.93;;;;;;;;;;5041307;28;20528;-68
2021/03/26 12:10:28;;;;;;;11.37;10.30;;;;;;;;;;5051474;28;20444;-66
2021/03/26 12:13:01;;;;;;;11.97;10.83;;;;;;;;;;5045611;28;20480;-66
2021/03/26 12:15:30;;;;;;;12.47;11.30;;;;;;;;;;5048520;28;20513;-67
2021/03/26 12:18:02;;;;;;;11.00;9.57;;;;;;;;;;5033741;28;20476;-66
2021/03/26 12:20:30;;;;;;;10.23;9.30;;;;;;;;;;5040751;28;20455;-68
2021/03/26 12:23:06;;;;;;;3.03;2.73;;;;;;;;;;5051097;28;20559;-66
2021/03/26 12:25:36;;;;;;;9.10;8.30;;;;;;;;;;5041878;28;20439;-66
2021/03/26 12:28:08;;;;;;;9.03;8.23;;;;;;;;;;5050951;28;21005;-66
2021/03/26 12:30:37;;;;;;;5.77;5.27;;;;;;;;;;5051063;28;20448;-67
2021/03/26 12:33:07;;;;;;;7.63;7.03;;;;;;;;;;5045044;28;20846;-66
2021/03/26 12:35:35;;;;;;;4.10;3.50;;;;;;;;;;5051069;28;20482;-67
2021/03/26 12:38:08;;;;;;;8.87;7.97;;;;;;;;;;5043945;28;20485;-66
2021/03/26 12:40:48;;;;;;;5.40;4.50;;;;;;;;;;5037999;28;20448;-66
2021/03/26 12:43:17;;;;;;;5.30;4.60;;;;;;;;;;5043225;28;20443;-67
2021/03/26 12:45:45;;;;;;;5.03;4.60;;;;;;;;;;5037926;28;20460;-66
2021/03/26 12:48:14;;;;;;;4.33;3.37;;;;;;;;;;5038443;28;20486;-66
2021/03/26 12:50:47;;;;;;;4.60;3.23;;;;;;;;;;5052106;28;20546;-65
2021/03/26 12:53:16;;;;;;;4.47;4.07;;;;;;;;;;5048839;28;20558;-66
2021/03/26 12:55:48;;;;;;;5.83;5.23;;;;;;;;;;5055099;28;20455;-66
2021/03/26 12:58:20;;;;;;;4.63;3.47;;;;;;;;;;5040645;28;20590;-68
2021/03/26 13:00:49;;;;;;;8.70;7.80;;;;;;;;;;5045888;28;20450;-66
2021/03/26 13:03:19;;;;;;;7.30;6.70;;;;;;;;;;5055173;28;20455;-66
2021/03/26 13:05:55;;;;;;;6.47;3.57;;;;;;;;;;5052799;28;20530;-67
2021/03/26 13:08:24;;;;;;;8.63;7.33;;;;;;;;;;5040629;28;20466;-66
2021/03/26 13:10:53;;;;;;;6.80;6.20;;;;;;;;;;5043153;28;20455;-66
2021/03/26 13:13:27;;;;;;;4.67;3.30;;;;;;;;;;5035264;28;20999;-65
2021/03/26 13:16:09;;;;;;;13.87;12.50;;;;;;;;;;5048866;28;20974;-64
2021/03/26 13:18:48;;;;;;;10.00;9.10;;;;;;;;;;5036836;28;20480;-65
2021/03/26 13:21:20;;;;;;;10.73;9.83;;;;;;;;;;5050509;28;20971;-65
2021/03/26 13:23:52;;;;;;;10.50;9.43;;;;;;;;;;5048702;28;20990;-65
2021/03/26 13:26:21;;;;;;;14.70;13.33;;;;;;;;;;5048823;28;20966;-64
2021/03/26 13:28:50;;;;;;;10.10;9.20;;;;;;;;;;5050289;28;20829;-65
2021/03/26 13:31:20;;;;;;;14.73;13.43;;;;;;;;;;5054760;28;20950;-64
2021/03/26 13:33:56;;;;;;;17.93;16.43;;;;;;;;;;5054761;28;20505;-64
2021/03/26 13:36:34;;;;;;;15.17;13.67;;;;;;;;;;5050382;28;20930;-64
2021/03/26 13:39:06;;;;;;;4.17;3.77;;;;;;;;;;5054504;28;21059;-64
2021/03/26 13:41:36;;;;;;;10.03;9.07;;;;;;;;;;5054453;28;20899;-64
2021/03/26 13:44:27;;;;;;;7.40;6.73;;;;;;;;;;5054735;28;20923;-64
2021/03/26 13:47:02;;;;;;;10.20;9.20;;;;;;;;;;5053891;28;20436;-64
2021/03/26 13:49:30;;;;;;;9.43;8.50;;;;;;;;;;5053600;28;20849;-65
2021/03/26 13:52:01;;;;;;;6.83;6.20;;;;;;;;;;5053958;28;20937;-65
2021/03/26 13:54:33;;;;;;;6.07;5.53;;;;;;;;;;5051949;28;20899;-64
2021/03/26 13:57:02;;;;;;;19.20;17.60;;;;;;;;;;5044426;28;20954;-64
2021/03/26 13:59:33;;;;;;;19.03;17.33;;;;;;;;;;5053909;28;20979;-64
2021/03/26 14:02:10;;;;;;;19.80;18.10;;;;;;;;;;5049564;28;21072;-64
2021/03/26 14:04:40;;;;;;;21.20;19.40;;;;;;;;;;5044711;28;21184;-66
2021/03/26 14:07:15;;;;;;;19.63;18.03;;;;;;;;;;5054069;28;20970;-64
2021/03/26 14:09:54;;;;;;;19.53;17.83;;;;;;;;;;5053290;28;21004;-63
2021/03/26 14:12:22;;;;;;;18.80;17.20;;;;;;;;;;5053664;28;20902;-64
2021/03/26 14:14:50;;;;;;;19.30;17.30;;;;;;;;;;5053498;28;20483;-65
2021/03/26 14:17:23;;;;;;;19.57;17.77;;;;;;;;;;5045222;28;20467;-65
2021/03/26 14:19:55;;;;;;;18.07;16.43;;;;;;;;;;5051920;28;20946;-64
2021/03/26 14:22:23;;;;;;;17.40;15.80;;;;;;;;;;5053694;28;20822;-64
2021/03/26 14:25:08;;;;;;;17.10;15.70;;;;;;;;;;5047041;28;20969;-64
2021/03/26 14:27:50;;;;;;;17.00;15.60;;;;;;;;;;5047811;28;20440;-64
2021/03/26 14:30:25;;;;;;;16.53;15.13;;;;;;;;;;5033596;28;21045;-65
2021/03/26 14:33:02;;;;;;;16.17;14.80;;;;;;;;;;5044944;28;20445;-64
2021/03/26 14:35:31;;;;;;;15.30;14.00;;;;;;;;;;5033283;28;20950;-64
2021/03/26 14:38:00;;;;;;;16.70;15.30;;;;;;;;;;5033056;28;20480;-64
2021/03/26 14:40:31;;;;;;;16.03;14.63;;;;;;;;;;5052563;28;20451;-66
2021/03/26 14:43:01;;;;;;;16.10;14.70;;;;;;;;;;5046768;28;20950;-66
2021/03/26 14:45:30;;;;;;;16.43;14.77;;;;;;;;;;5052778;28;20451;-65
2021/03/26 14:48:07;;;;;;;16.00;14.60;;;;;;;;;;5046723;28;20983;-66